Time;durP1;ratioP1;P1;durP2;ratioP2;P2;SDS_P1;SDS_P2;PMS_P1;PMS_P2;Temp;Humidity;BMP_temperature;BMP_pressure;BME280_temperature;BME280_humidity;BME280_pressure;Samples;Min_cycle;Max_cycle;Signal;HPM_P1;HPM_P2
2022/05/02 00:01:08;;;;;;;15.05;2.40;;;;;;;;;;5032180;28;20253;-70
2022/05/02 00:03:36;;;;;;;14.70;2.88;;;;;;;;;;5032449;28;20200;-71
2022/05/02 00:06:03;;;;;;;14.38;2.83;;;;;;;;;;5032631;28;20199;-70
2022/05/02 00:08:31;;;;;;;13.45;2.75;;;;;;;;;;5032808;28;20253;-71
2022/05/02 00:10:59;;;;;;;15.75;3.00;;;;;;;;;;5031665;28;20194;-70
2022/05/02 00:13:27;;;;;;;13.85;2.65;;;;;;;;;;5032170;28;20264;-70
2022/05/02 00:15:55;;;;;;;14.38;2.70;;;;;;;;;;5032500;28;20264;-70
2022/05/02 00:18:23;;;;;;;15.45;2.78;;;;;;;;;;5032674;28;20229;-71
2022/05/02 00:20:50;;;;;;;13.93;2.40;;;;;;;;;;5032517;28;20304;-70
2022/05/02 00:23:18;;;;;;;18.33;2.83;;;;;;;;;;5032054;28;20207;-71
2022/05/02 00:25:45;;;;;;;21.67;3.42;;;;;;;;;;5032440;28;20675;-70
2022/05/02 00:28:14;;;;;;;13.02;2.72;;;;;;;;;;5032021;28;20729;-70
2022/05/02 00:30:43;;;;;;;15.32;3.00;;;;;;;;;;5032096;28;20775;-70
2022/05/02 00:33:11;;;;;;;12.75;2.67;;;;;;;;;;5032312;28;20202;-71
2022/05/02 00:35:39;;;;;;;14.23;2.42;;;;;;;;;;5032122;28;20201;-70
2022/05/02 00:38:06;;;;;;;14.50;3.25;;;;;;;;;;5032000;28;20202;-70
2022/05/02 00:40:34;;;;;;;14.63;2.97;;;;;;;;;;5032390;28;20210;-70
2022/05/02 00:43:01;;;;;;;14.00;2.90;;;;;;;;;;5031913;28;20669;-70
2022/05/02 00:45:29;;;;;;;13.95;2.67;;;;;;;;;;5032163;28;20288;-70
2022/05/02 00:47:58;;;;;;;15.05;2.63;;;;;;;;;;5031949;28;20230;-70
2022/05/02 00:50:33;;;;;;;17.85;2.92;;;;;;;;;;5031775;28;20209;-70
2022/05/02 00:53:01;;;;;;;14.70;3.13;;;;;;;;;;5032041;28;20650;-71
2022/05/02 00:55:29;;;;;;;15.57;2.92;;;;;;;;;;5031485;28;20236;-71
2022/05/02 00:57:56;;;;;;;23.65;3.10;;;;;;;;;;5031562;28;20218;-70
2022/05/02 01:00:24;;;;;;;15.18;2.80;;;;;;;;;;5031856;28;20723;-71
2022/05/02 01:02:51;;;;;;;13.40;2.88;;;;;;;;;;5031732;28;20289;-70
2022/05/02 01:05:20;;;;;;;14.40;3.03;;;;;;;;;;5031633;28;20217;-70
2022/05/02 01:07:48;;;;;;;17.00;2.90;;;;;;;;;;5031510;28;20207;-70
2022/05/02 01:10:17;;;;;;;14.55;2.75;;;;;;;;;;5031688;28;20210;-70
2022/05/02 01:12:46;;;;;;;14.13;3.00;;;;;;;;;;5031653;28;20256;-70
2022/05/02 01:15:14;;;;;;;14.50;2.70;;;;;;;;;;5031330;28;20288;-71
2022/05/02 01:17:41;;;;;;;17.75;3.67;;;;;;;;;;5031897;28;20221;-70
2022/05/02 01:20:11;;;;;;;17.20;3.33;;;;;;;;;;5031464;28;20206;-70
2022/05/02 01:22:38;;;;;;;13.20;2.95;;;;;;;;;;5034441;28;20200;-70
2022/05/02 01:25:07;;;;;;;16.58;3.25;;;;;;;;;;5035762;28;20308;-70
2022/05/02 01:27:35;;;;;;;15.85;3.45;;;;;;;;;;5035703;28;20264;-70
2022/05/02 01:30:02;;;;;;;13.68;2.60;;;;;;;;;;5035318;28;20232;-70
2022/05/02 01:32:30;;;;;;;15.77;3.10;;;;;;;;;;5035489;28;20209;-70
2022/05/02 01:34:57;;;;;;;22.77;2.97;;;;;;;;;;5035263;28;20214;-70
2022/05/02 01:37:26;;;;;;;13.65;2.85;;;;;;;;;;5035202;28;20238;-70
2022/05/02 01:39:53;;;;;;;13.98;2.70;;;;;;;;;;5035154;28;20693;-70
2022/05/02 01:42:21;;;;;;;13.70;2.50;;;;;;;;;;5035421;28;20294;-71
2022/05/02 01:44:49;;;;;;;15.25;3.10;;;;;;;;;;5035060;28;20204;-70
2022/05/02 01:47:16;;;;;;;17.58;2.75;;;;;;;;;;5035154;28;20289;-70
2022/05/02 01:49:44;;;;;;;14.50;2.88;;;;;;;;;;5034879;28;20734;-70
2022/05/02 01:52:11;;;;;;;13.45;2.83;;;;;;;;;;5035003;28;20202;-70
2022/05/02 01:54:40;;;;;;;14.30;2.90;;;;;;;;;;5035046;28;20199;-70
2022/05/02 01:57:07;;;;;;;13.60;2.60;;;;;;;;;;5034941;28;20206;-70
2022/05/02 01:59:35;;;;;;;17.15;2.65;;;;;;;;;;5034748;28;20225;-70
2022/05/02 02:02:03;;;;;;;16.08;2.95;;;;;;;;;;5034647;28;20241;-70
2022/05/02 02:07:15;;;;;;;13.90;2.65;;;;;;;;;;5034658;28;20597;-70
2022/05/02 02:09:44;;;;;;;13.68;3.08;;;;;;;;;;5034876;28;20718;-70
2022/05/02 02:12:12;;;;;;;13.05;2.38;;;;;;;;;;5034714;28;20206;-70
2022/05/02 02:14:40;;;;;;;14.27;3.38;;;;;;;;;;5034781;28;20202;-70
2022/05/02 02:17:07;;;;;;;22.55;3.55;;;;;;;;;;5035137;28;20298;-70
2022/05/02 02:19:34;;;;;;;16.33;3.42;;;;;;;;;;5034283;28;20212;-70
2022/05/02 02:24:57;;;;;;;14.18;2.65;;;;;;;;;;5109933;27;20564;-70
2022/05/02 02:27:24;;;;;;;15.95;3.38;;;;;;;;;;5109375;28;20653;-70
2022/05/02 02:29:52;;;;;;;13.10;2.60;;;;;;;;;;5109772;28;20695;-70
2022/05/02 02:32:20;;;;;;;13.80;3.03;;;;;;;;;;5109800;28;20206;-70
2022/05/02 02:34:47;;;;;;;14.15;3.00;;;;;;;;;;5109565;28;20204;-70
2022/05/02 02:37:15;;;;;;;18.42;3.53;;;;;;;;;;5109589;28;20198;-70
2022/05/02 02:39:43;;;;;;;14.25;2.40;;;;;;;;;;5109442;28;20201;-70
2022/05/02 02:42:12;;;;;;;13.73;2.35;;;;;;;;;;5109768;28;20197;-71
2022/05/02 02:44:39;;;;;;;13.70;2.50;;;;;;;;;;5109409;28;20642;-71
2022/05/02 02:47:07;;;;;;;15.77;3.00;;;;;;;;;;5109440;28;20200;-71
2022/05/02 02:49:35;;;;;;;13.73;2.60;;;;;;;;;;5109142;28;20200;-70
2022/05/02 02:52:02;;;;;;;14.05;2.85;;;;;;;;;;5109228;28;20206;-70
2022/05/02 02:54:29;;;;;;;13.07;2.50;;;;;;;;;;5109203;28;20209;-70
2022/05/02 02:56:57;;;;;;;13.88;3.22;;;;;;;;;;5109339;28;20205;-70
2022/05/02 02:59:26;;;;;;;13.98;2.50;;;;;;;;;;5109179;28;20199;-70
2022/05/02 03:01:54;;;;;;;16.02;3.90;;;;;;;;;;5109117;28;20215;-70
2022/05/02 03:07:07;;;;;;;13.07;2.67;;;;;;;;;;5109154;28;20272;-70
2022/05/02 03:09:35;;;;;;;14.50;2.78;;;;;;;;;;5109151;28;20202;-70
2022/05/02 03:12:04;;;;;;;13.95;2.60;;;;;;;;;;5109217;28;20199;-70
2022/05/02 03:14:33;;;;;;;13.45;2.47;;;;;;;;;;5108816;28;20200;-70
2022/05/02 03:17:00;;;;;;;12.98;2.40;;;;;;;;;;5108764;28;20202;-70
2022/05/02 03:19:28;;;;;;;13.40;2.50;;;;;;;;;;5108458;28;20561;-70
2022/05/02 03:21:55;;;;;;;13.40;2.30;;;;;;;;;;5109205;28;20633;-70
2022/05/02 03:24:23;;;;;;;12.45;2.20;;;;;;;;;;5108446;28;20721;-70
2022/05/02 03:26:50;;;;;;;13.65;2.85;;;;;;;;;;5108881;28;20236;-70
2022/05/02 03:29:18;;;;;;;14.75;2.72;;;;;;;;;;5108277;28;20599;-70
2022/05/02 03:31:47;;;;;;;13.95;2.80;;;;;;;;;;5108990;28;20568;-70
2022/05/02 03:34:14;;;;;;;15.80;2.67;;;;;;;;;;5107037;28;20212;-70
2022/05/02 03:36:42;;;;;;;14.98;2.65;;;;;;;;;;5094741;28;20201;-70
2022/05/02 03:39:10;;;;;;;16.80;2.95;;;;;;;;;;5094709;28;20208;-70
2022/05/02 03:41:37;;;;;;;13.40;3.10;;;;;;;;;;5094874;28;20193;-70
2022/05/02 03:44:05;;;;;;;17.25;4.35;;;;;;;;;;5094757;28;20305;-70
2022/05/02 03:46:32;;;;;;;16.77;3.63;;;;;;;;;;5095213;28;20239;-70
2022/05/02 03:49:01;;;;;;;13.35;3.00;;;;;;;;;;5094913;28;20586;-70
2022/05/02 03:51:29;;;;;;;13.10;2.83;;;;;;;;;;5094540;28;20226;-70
2022/05/02 03:53:56;;;;;;;17.73;3.63;;;;;;;;;;5094489;28;20669;-69
2022/05/02 03:56:23;;;;;;;16.98;3.33;;;;;;;;;;5094564;28;20196;-68
2022/05/02 03:58:52;;;;;;;14.75;3.80;;;;;;;;;;5094365;28;20656;-68
2022/05/02 04:01:19;;;;;;;17.15;3.30;;;;;;;;;;5094431;28;20242;-69
2022/05/02 04:03:47;;;;;;;14.00;3.35;;;;;;;;;;5094528;28;20223;-69
2022/05/02 04:06:16;;;;;;;21.63;3.50;;;;;;;;;;5094726;28;20196;-69
2022/05/02 04:08:44;;;;;;;13.15;2.80;;;;;;;;;;5094218;28;20200;-69
2022/05/02 04:11:11;;;;;;;15.57;3.03;;;;;;;;;;5093844;28;20194;-69
2022/05/02 04:13:39;;;;;;;14.40;3.10;;;;;;;;;;5094704;28;20478;-69
2022/05/02 04:16:06;;;;;;;13.87;2.97;;;;;;;;;;5094031;28;20521;-69
2022/05/02 04:18:33;;;;;;;15.20;2.87;;;;;;;;;;5094251;28;20473;-69
2022/05/02 04:21:01;;;;;;;20.93;2.97;;;;;;;;;;5093955;28;20935;-69
2022/05/02 04:23:30;;;;;;;13.40;2.30;;;;;;;;;;5093780;28;20490;-70
2022/05/02 04:25:57;;;;;;;16.50;2.77;;;;;;;;;;5094141;28;20816;-69
2022/05/02 04:28:25;;;;;;;13.17;2.37;;;;;;;;;;5094037;28;20437;-69
2022/05/02 04:30:52;;;;;;;14.83;2.70;;;;;;;;;;5093728;28;20444;-70
2022/05/02 04:33:20;;;;;;;14.53;2.90;;;;;;;;;;5093481;28;20442;-70
2022/05/02 04:35:47;;;;;;;13.50;3.03;;;;;;;;;;5093780;28;20446;-71
2022/05/02 04:38:15;;;;;;;18.27;3.30;;;;;;;;;;5094081;28;20797;-71
2022/05/02 04:40:44;;;;;;;13.67;2.87;;;;;;;;;;5093836;28;20518;-71
2022/05/02 04:43:13;;;;;;;14.20;2.80;;;;;;;;;;5093448;28;20449;-72
2022/05/02 04:45:41;;;;;;;14.37;2.57;;;;;;;;;;5093464;28;20426;-71
2022/05/02 04:48:10;;;;;;;13.77;2.77;;;;;;;;;;5093017;28;20481;-72
2022/05/02 04:50:38;;;;;;;13.20;2.47;;;;;;;;;;5093293;28;20503;-71
2022/05/02 04:53:05;;;;;;;15.17;2.43;;;;;;;;;;5093829;28;20458;-71
2022/05/02 04:55:32;;;;;;;15.17;3.00;;;;;;;;;;5093326;28;20443;-72
2022/05/02 04:58:01;;;;;;;14.27;2.90;;;;;;;;;;5093443;28;20440;-72
2022/05/02 05:00:29;;;;;;;16.37;3.40;;;;;;;;;;5093248;28;20899;-73
2022/05/02 05:02:56;;;;;;;15.77;3.30;;;;;;;;;;5093225;28;20447;-70
2022/05/02 05:05:24;;;;;;;14.67;2.80;;;;;;;;;;5092825;28;20475;-71
2022/05/02 05:07:51;;;;;;;13.70;2.60;;;;;;;;;;5093412;28;20447;-71
2022/05/02 05:10:19;;;;;;;14.20;2.93;;;;;;;;;;5092951;28;20448;-71
2022/05/02 05:12:55;;;;;;;14.30;2.93;;;;;;;;;;5093461;28;20519;-71
2022/05/02 05:18:24;;;;;;;13.90;2.67;;;;;;;;;;5093059;28;20423;-72
2022/05/02 05:20:57;;;;;;;12.73;2.50;;;;;;;;;;5092952;28;20437;-71
2022/05/02 05:23:32;;;;;;;13.40;2.37;;;;;;;;;;5092534;28;20986;-72
2022/05/02 05:26:07;;;;;;;14.33;2.30;;;;;;;;;;5092825;28;20449;-72
2022/05/02 05:28:53;;;;;;;13.37;2.83;;;;;;;;;;5093335;28;20453;-72
2022/05/02 05:31:36;;;;;;;13.50;2.70;;;;;;;;;;5092421;28;20453;-71
2022/05/02 05:34:09;;;;;;;17.73;3.23;;;;;;;;;;5090864;28;20457;-71
2022/05/02 05:36:44;;;;;;;13.23;2.60;;;;;;;;;;5092585;28;20448;-71
2022/05/02 05:39:13;;;;;;;16.50;2.43;;;;;;;;;;5092582;28;20437;-72
2022/05/02 05:41:47;;;;;;;14.90;2.87;;;;;;;;;;5092475;28;20981;-71
2022/05/02 05:44:20;;;;;;;17.83;2.70;;;;;;;;;;5092415;28;20849;-71
2022/05/02 05:46:52;;;;;;;13.07;2.60;;;;;;;;;;5092510;28;20449;-72
2022/05/02 05:49:30;;;;;;;12.80;2.30;;;;;;;;;;5092124;28;20982;-72
2022/05/02 05:52:02;;;;;;;14.50;2.67;;;;;;;;;;5092339;28;20525;-72
2022/05/02 05:54:38;;;;;;;14.50;2.93;;;;;;;;;;5092312;28;20957;-72
2022/05/02 05:57:10;;;;;;;14.40;2.97;;;;;;;;;;5092336;28;20442;-72
2022/05/02 05:59:43;;;;;;;14.90;3.53;;;;;;;;;;5092008;28;20453;-72
2022/05/02 06:02:18;;;;;;;17.30;3.10;;;;;;;;;;5092039;28;20465;-72
2022/05/02 06:04:49;;;;;;;15.50;3.40;;;;;;;;;;5092167;28;20476;-72
2022/05/02 06:07:19;;;;;;;14.77;3.10;;;;;;;;;;5092121;28;20436;-72
2022/05/02 06:09:46;;;;;;;14.40;2.80;;;;;;;;;;5092055;28;20448;-72
2022/05/02 06:12:15;;;;;;;13.50;2.30;;;;;;;;;;5091934;28;20815;-72
2022/05/02 06:20:15;;;;;;;15.17;2.43;;;;;;;;;;5092017;28;20517;-72
2022/05/02 06:22:43;;;;;;;20.73;3.07;;;;;;;;;;5091664;28;20437;-71
2022/05/02 06:25:11;;;;;;;14.57;2.63;;;;;;;;;;5091622;28;21035;-71
2022/05/02 06:27:41;;;;;;;12.80;2.30;;;;;;;;;;5092089;28;20439;-72
2022/05/02 06:30:09;;;;;;;14.60;2.70;;;;;;;;;;5092162;28;20812;-72
2022/05/02 06:32:38;;;;;;;13.97;2.40;;;;;;;;;;5091790;28;20441;-72
2022/05/02 06:35:06;;;;;;;14.70;2.67;;;;;;;;;;5092018;28;20512;-72
2022/05/02 06:37:37;;;;;;;15.07;3.67;;;;;;;;;;5091885;28;20440;-72
2022/05/02 06:40:06;;;;;;;13.53;2.83;;;;;;;;;;5091786;28;20499;-72
2022/05/02 06:42:37;;;;;;;15.40;2.87;;;;;;;;;;5091799;28;20446;-71
2022/05/02 06:45:09;;;;;;;15.60;3.00;;;;;;;;;;5091642;28;20486;-71
2022/05/02 06:47:45;;;;;;;20.07;2.93;;;;;;;;;;5092007;28;20471;-71
2022/05/02 06:50:13;;;;;;;13.20;2.83;;;;;;;;;;5092080;28;20439;-72
2022/05/02 06:52:46;;;;;;;15.23;3.37;;;;;;;;;;5091618;28;20974;-71
2022/05/02 06:55:18;;;;;;;14.90;2.70;;;;;;;;;;5091508;28;20793;-71
2022/05/02 06:57:51;;;;;;;17.13;2.83;;;;;;;;;;5091717;28;20499;-71
2022/05/02 07:00:20;;;;;;;15.77;2.40;;;;;;;;;;5092012;28;20550;-71
2022/05/02 07:03:15;;;;;;;20.07;3.53;;;;;;;;;;5091453;28;20534;-71
2022/05/02 07:05:48;;;;;;;14.50;3.13;;;;;;;;;;5056080;28;20483;-71
2022/05/02 07:08:24;;;;;;;14.30;2.90;;;;;;;;;;5091495;28;20439;-72
2022/05/02 07:10:52;;;;;;;14.17;2.60;;;;;;;;;;5093863;28;20438;-69
2022/05/02 07:13:24;;;;;;;13.13;2.23;;;;;;;;;;5095388;28;20525;-71
2022/05/02 07:15:52;;;;;;;19.27;2.50;;;;;;;;;;5095421;28;20453;-71
2022/05/02 07:18:29;;;;;;;15.23;2.70;;;;;;;;;;5095270;28;20531;-71
2022/05/02 07:21:00;;;;;;;13.40;2.40;;;;;;;;;;5095169;28;20448;-71
2022/05/02 07:23:36;;;;;;;13.87;2.20;;;;;;;;;;5094739;28;20471;-72
2022/05/02 07:26:05;;;;;;;15.23;2.20;;;;;;;;;;5095491;28;20481;-71
2022/05/02 07:28:36;;;;;;;14.70;2.40;;;;;;;;;;5094985;28;20450;-71
2022/05/02 07:31:03;;;;;;;13.40;2.60;;;;;;;;;;5094983;28;20443;-71
2022/05/02 07:33:32;;;;;;;15.63;3.00;;;;;;;;;;5095172;28;20889;-71
2022/05/02 07:36:02;;;;;;;14.57;2.47;;;;;;;;;;5094835;28;20568;-71
2022/05/02 07:38:32;;;;;;;17.03;3.10;;;;;;;;;;5094978;28;20456;-71
2022/05/02 07:43:49;;;;;;;13.20;2.17;;;;;;;;;;5095013;28;20938;-71
2022/05/02 07:46:17;;;;;;;16.33;2.57;;;;;;;;;;5094886;28;20549;-71
2022/05/02 07:48:46;;;;;;;13.30;2.60;;;;;;;;;;5094815;28;20452;-71
2022/05/02 07:51:14;;;;;;;13.80;2.00;;;;;;;;;;5094593;28;20535;-71
2022/05/02 07:53:45;;;;;;;17.03;2.70;;;;;;;;;;5094580;28;20519;-71
2022/05/02 07:56:14;;;;;;;14.70;2.10;;;;;;;;;;5094436;28;20449;-71
2022/05/02 07:58:43;;;;;;;13.53;2.30;;;;;;;;;;5094700;28;20466;-71
2022/05/02 08:01:10;;;;;;;17.33;2.20;;;;;;;;;;5094455;28;20559;-71
2022/05/02 08:03:37;;;;;;;14.00;2.20;;;;;;;;;;5094332;28;20439;-70
2022/05/02 08:06:16;;;;;;;14.07;2.80;;;;;;;;;;5094435;28;20475;-69
2022/05/02 08:08:50;;;;;;;22.93;1.90;;;;;;;;;;5094204;28;20434;-70
2022/05/02 08:11:20;;;;;;;13.50;2.17;;;;;;;;;;5094267;28;20453;-70
2022/05/02 08:13:54;;;;;;;13.87;2.10;;;;;;;;;;5094177;28;20959;-70
2022/05/02 08:16:24;;;;;;;14.23;2.33;;;;;;;;;;5094108;28;20457;-70
2022/05/02 08:19:04;;;;;;;15.13;3.13;;;;;;;;;;5094177;28;20438;-70
2022/05/02 08:21:35;;;;;;;13.97;2.57;;;;;;;;;;5093934;28;20445;-70
2022/05/02 08:27:19;;;;;;;13.93;2.53;;;;;;;;;;5094025;28;20495;-70
2022/05/02 08:29:54;;;;;;;14.93;3.70;;;;;;;;;;5094158;28;20469;-70
2022/05/02 08:32:24;;;;;;;14.60;2.73;;;;;;;;;;5093846;28;20434;-70
2022/05/02 08:34:57;;;;;;;15.00;4.40;;;;;;;;;;5093856;28;20449;-70
2022/05/02 08:37:44;;;;;;;15.00;3.00;;;;;;;;;;5093504;28;20442;-70
2022/05/02 08:40:16;;;;;;;18.50;3.13;;;;;;;;;;5094234;28;20446;-69
2022/05/02 08:42:57;;;;;;;15.83;2.97;;;;;;;;;;5093993;28;20432;-70
2022/05/02 08:45:42;;;;;;;14.40;1.87;;;;;;;;;;5093595;28;20475;-69
2022/05/02 08:48:27;;;;;;;14.60;3.07;;;;;;;;;;5083416;28;20478;-70
2022/05/02 08:51:10;;;;;;;14.60;2.80;;;;;;;;;;5093461;28;20533;-70
2022/05/02 08:54:03;;;;;;;13.00;2.50;;;;;;;;;;5093798;28;20811;-71
2022/05/02 08:56:40;;;;;;;13.23;2.50;;;;;;;;;;5078895;28;20482;-69
2022/05/02 08:59:37;;;;;;;14.10;2.40;;;;;;;;;;5093442;28;20837;-70
2022/05/02 09:02:32;;;;;;;13.40;2.10;;;;;;;;;;5093076;28;20831;-70
2022/05/02 09:05:21;;;;;;;13.50;1.87;;;;;;;;;;5057439;28;20495;-70
2022/05/02 09:08:14;;;;;;;17.33;2.63;;;;;;;;;;5088972;28;20478;-70
2022/05/02 09:11:02;;;;;;;12.40;2.07;;;;;;;;;;5093331;28;20883;-71
2022/05/02 09:13:47;;;;;;;14.33;2.50;;;;;;;;;;5088188;28;20470;-69
2022/05/02 09:16:29;;;;;;;15.47;2.40;;;;;;;;;;5093231;28;20450;-70
2022/05/02 09:19:12;;;;;;;14.30;2.10;;;;;;;;;;5093157;28;20449;-70
2022/05/02 09:21:50;;;;;;;13.83;2.20;;;;;;;;;;5092817;28;20445;-69
2022/05/02 09:24:32;;;;;;;15.57;2.63;;;;;;;;;;5093358;28;20845;-70
2022/05/02 09:27:21;;;;;;;15.83;2.50;;;;;;;;;;5091136;28;20529;-69
2022/05/02 09:30:14;;;;;;;13.40;2.60;;;;;;;;;;5092718;28;20877;-69
2022/05/02 09:32:49;;;;;;;12.60;2.10;;;;;;;;;;5092675;28;20430;-70
2022/05/02 09:35:26;;;;;;;15.33;2.70;;;;;;;;;;5092369;28;20540;-70
2022/05/02 09:37:57;;;;;;;13.40;2.30;;;;;;;;;;5092640;28;20473;-70
2022/05/02 09:40:30;;;;;;;17.27;2.80;;;;;;;;;;5092645;28;20794;-70
2022/05/02 09:43:03;;;;;;;16.23;2.47;;;;;;;;;;5092634;28;20820;-70
2022/05/02 09:51:18;;;;;;;15.17;2.27;;;;;;;;;;5058695;28;20939;-70
2022/05/02 09:53:57;;;;;;;19.03;2.20;;;;;;;;;;5092362;28;20438;-70
2022/05/02 09:56:39;;;;;;;13.10;2.20;;;;;;;;;;5092628;28;20533;-70
2022/05/02 09:59:08;;;;;;;13.60;2.60;;;;;;;;;;5092213;28;20442;-69
2022/05/02 10:01:37;;;;;;;13.90;2.60;;;;;;;;;;5092524;28;20832;-70
2022/05/02 10:04:26;;;;;;;13.97;2.30;;;;;;;;;;5092432;28;20440;-70
2022/05/02 10:06:53;;;;;;;14.00;2.50;;;;;;;;;;5092206;28;20478;-70
2022/05/02 10:09:32;;;;;;;14.13;2.90;;;;;;;;;;5091963;28;20450;-70
2022/05/02 10:12:14;;;;;;;14.50;2.73;;;;;;;;;;5092233;28;20467;-70
2022/05/02 10:14:56;;;;;;;12.67;1.97;;;;;;;;;;5090141;28;20537;-70
2022/05/02 10:17:45;;;;;;;14.20;2.30;;;;;;;;;;5091912;28;20441;-70
2022/05/02 10:20:18;;;;;;;13.43;2.03;;;;;;;;;;5066476;28;20450;-70
2022/05/02 10:22:51;;;;;;;13.03;2.03;;;;;;;;;;5091867;28;20571;-70
2022/05/02 10:25:25;;;;;;;12.70;1.80;;;;;;;;;;5091950;28;20848;-70
2022/05/02 10:28:05;;;;;;;16.63;2.70;;;;;;;;;;5092217;28;20809;-69
2022/05/02 10:30:43;;;;;;;13.83;2.50;;;;;;;;;;5091857;28;20438;-70
2022/05/02 10:33:15;;;;;;;14.40;2.20;;;;;;;;;;5091668;28;20450;-71
2022/05/02 10:35:46;;;;;;;13.97;2.73;;;;;;;;;;5091912;28;20438;-70
2022/05/02 10:38:15;;;;;;;16.07;2.00;;;;;;;;;;5091830;28;20993;-70
2022/05/02 10:40:43;;;;;;;12.50;2.00;;;;;;;;;;5091736;28;20444;-70
2022/05/02 10:43:12;;;;;;;12.80;2.10;;;;;;;;;;5092213;28;20450;-70
2022/05/02 10:45:40;;;;;;;11.80;1.70;;;;;;;;;;5093913;28;21032;-71
2022/05/02 10:48:25;;;;;;;13.83;1.93;;;;;;;;;;5095823;28;20443;-70
2022/05/02 10:51:00;;;;;;;12.50;1.97;;;;;;;;;;5095911;28;20450;-71
2022/05/02 10:53:46;;;;;;;13.03;2.50;;;;;;;;;;5095559;28;20437;-70
2022/05/02 10:56:20;;;;;;;12.93;2.43;;;;;;;;;;5095732;28;20446;-71
2022/05/02 10:58:48;;;;;;;15.13;2.13;;;;;;;;;;5095775;28;20436;-70
2022/05/02 11:01:24;;;;;;;13.10;2.03;;;;;;;;;;5095154;28;20456;-70
2022/05/02 11:03:59;;;;;;;13.90;2.10;;;;;;;;;;5095548;28;20437;-70
2022/05/02 11:06:38;;;;;;;13.00;1.93;;;;;;;;;;5095825;28;20479;-70
2022/05/02 11:09:07;;;;;;;15.17;2.20;;;;;;;;;;5095453;28;20438;-70
2022/05/02 11:11:41;;;;;;;12.97;2.00;;;;;;;;;;5095559;28;20952;-70
2022/05/02 11:14:13;;;;;;;12.83;1.90;;;;;;;;;;5095526;28;20428;-70
2022/05/02 11:16:45;;;;;;;14.30;2.30;;;;;;;;;;5095679;28;20873;-70
2022/05/02 11:22:13;;;;;;;12.20;1.90;;;;;;;;;;5095394;28;20430;-70
2022/05/02 11:24:44;;;;;;;12.43;1.77;;;;;;;;;;5095462;28;20528;-70
2022/05/02 11:27:22;;;;;;;12.33;1.77;;;;;;;;;;5095045;28;20560;-70
2022/05/02 11:29:53;;;;;;;13.30;1.90;;;;;;;;;;5095143;28;20445;-70
2022/05/02 11:32:27;;;;;;;13.80;2.00;;;;;;;;;;5095051;28;20975;-70
2022/05/02 11:35:00;;;;;;;13.43;2.10;;;;;;;;;;5094925;28;20491;-70
2022/05/02 11:37:35;;;;;;;13.50;1.90;;;;;;;;;;5094726;28;20438;-71
2022/05/02 11:40:07;;;;;;;13.47;2.10;;;;;;;;;;5095192;28;20438;-70
2022/05/02 11:42:35;;;;;;;12.30;2.00;;;;;;;;;;5095048;28;20438;-70
2022/05/02 11:45:10;;;;;;;12.40;1.77;;;;;;;;;;5095018;28;20892;-70
2022/05/02 11:47:48;;;;;;;12.37;1.80;;;;;;;;;;5094621;28;21216;-70
2022/05/02 11:50:18;;;;;;;15.63;2.30;;;;;;;;;;5094879;28;20804;-71
2022/05/02 11:52:52;;;;;;;13.40;1.70;;;;;;;;;;5095278;28;20435;-71
2022/05/02 11:55:20;;;;;;;14.23;1.93;;;;;;;;;;5093966;28;20450;-70
2022/05/02 11:57:52;;;;;;;13.03;2.20;;;;;;;;;;5094513;28;20443;-70
2022/05/02 12:00:19;;;;;;;12.20;2.00;;;;;;;;;;5094491;28;20442;-70
2022/05/02 12:02:48;;;;;;;12.80;2.00;;;;;;;;;;5094399;28;20447;-70
2022/05/02 12:05:31;;;;;;;13.70;2.20;;;;;;;;;;5094431;28;20444;-70
2022/05/02 12:08:01;;;;;;;13.07;2.40;;;;;;;;;;5094399;28;20442;-70
2022/05/02 12:10:45;;;;;;;14.97;2.57;;;;;;;;;;5094200;28;20446;-70
2022/05/02 12:13:13;;;;;;;14.50;2.20;;;;;;;;;;5092690;28;20440;-70
2022/05/02 12:15:55;;;;;;;13.20;2.40;;;;;;;;;;5094485;28;20464;-70
2022/05/02 12:18:23;;;;;;;14.13;2.70;;;;;;;;;;5092249;28;20489;-70
2022/05/02 12:20:56;;;;;;;12.80;2.00;;;;;;;;;;5094018;28;20949;-70
2022/05/02 12:23:31;;;;;;;12.50;1.97;;;;;;;;;;5093640;28;20857;-70
2022/05/02 12:25:59;;;;;;;16.47;2.43;;;;;;;;;;5094248;28;20478;-70
2022/05/02 12:28:39;;;;;;;15.23;2.40;;;;;;;;;;5094158;28;20541;-70
2022/05/02 12:31:08;;;;;;;15.50;2.00;;;;;;;;;;5093969;28;20442;-70
2022/05/02 12:33:36;;;;;;;12.20;1.83;;;;;;;;;;5094041;28;20441;-71
2022/05/02 12:36:05;;;;;;;14.60;2.40;;;;;;;;;;5094499;28;20442;-70
2022/05/02 12:38:35;;;;;;;13.13;2.43;;;;;;;;;;5093824;28;20454;-70
2022/05/02 12:41:03;;;;;;;13.83;2.20;;;;;;;;;;5093750;28;20442;-70
2022/05/02 12:43:34;;;;;;;14.93;2.13;;;;;;;;;;5093521;28;20501;-70
2022/05/02 12:46:08;;;;;;;14.90;2.20;;;;;;;;;;5094154;28;20489;-70
2022/05/02 12:48:38;;;;;;;12.80;2.10;;;;;;;;;;5094028;28;20822;-70
2022/05/02 12:51:07;;;;;;;12.77;2.20;;;;;;;;;;5093622;28;20446;-70
2022/05/02 12:56:22;;;;;;;13.07;2.20;;;;;;;;;;5093747;28;20434;-70
2022/05/02 13:01:43;;;;;;;12.97;1.87;;;;;;;;;;5093287;28;20449;-70
2022/05/02 13:04:16;;;;;;;18.07;2.43;;;;;;;;;;5093279;28;20446;-71
2022/05/02 13:06:45;;;;;;;13.53;2.13;;;;;;;;;;5093082;28;20511;-71
2022/05/02 13:09:19;;;;;;;12.57;1.90;;;;;;;;;;5092542;28;20431;-70
2022/05/02 13:11:46;;;;;;;13.63;2.50;;;;;;;;;;5093111;28;20954;-70
2022/05/02 13:14:24;;;;;;;14.40;2.70;;;;;;;;;;5093276;28;20533;-70
2022/05/02 13:16:52;;;;;;;14.50;2.50;;;;;;;;;;5093046;28;20443;-70
2022/05/02 13:19:19;;;;;;;12.93;2.00;;;;;;;;;;5092717;28;20832;-70
2022/05/02 13:21:56;;;;;;;14.07;2.60;;;;;;;;;;5093027;28;20447;-70
2022/05/02 13:24:26;;;;;;;14.53;2.50;;;;;;;;;;5093436;28;20489;-72
2022/05/02 13:27:09;;;;;;;16.80;3.00;;;;;;;;;;5092849;28;20477;-72
2022/05/02 13:29:50;;;;;;;14.17;2.47;;;;;;;;;;5092771;28;20842;-71
2022/05/02 13:32:23;;;;;;;15.00;2.83;;;;;;;;;;5092754;28;20448;-71
2022/05/02 13:35:06;;;;;;;13.10;2.33;;;;;;;;;;5093186;28;20496;-71
2022/05/02 13:37:38;;;;;;;16.30;3.03;;;;;;;;;;5090417;28;20464;-71
2022/05/02 13:40:09;;;;;;;13.57;2.43;;;;;;;;;;5093153;28;20453;-71
2022/05/02 13:42:55;;;;;;;13.77;2.60;;;;;;;;;;5092709;28;20449;-72
2022/05/02 13:45:35;;;;;;;16.50;2.67;;;;;;;;;;5092538;28;20430;-71
2022/05/02 13:48:10;;;;;;;14.43;3.10;;;;;;;;;;5092657;28;20477;-72
2022/05/02 13:50:40;;;;;;;12.50;2.20;;;;;;;;;;5092601;28;20436;-73
2022/05/02 13:53:13;;;;;;;12.63;2.10;;;;;;;;;;5092684;28;20488;-69
2022/05/02 13:55:48;;;;;;;12.60;2.07;;;;;;;;;;5092370;28;20448;-73
2022/05/02 13:58:22;;;;;;;15.43;2.63;;;;;;;;;;5092467;28;20437;-70
2022/05/02 14:03:48;;;;;;;15.37;2.73;;;;;;;;;;5092337;28;20426;-70
2022/05/02 14:06:19;;;;;;;13.80;2.43;;;;;;;;;;5092307;28;20433;-70
2022/05/02 14:08:48;;;;;;;13.30;2.30;;;;;;;;;;5092180;28;20540;-71
2022/05/02 14:11:18;;;;;;;12.40;2.20;;;;;;;;;;5091762;28;20499;-71
2022/05/02 14:13:47;;;;;;;19.70;2.27;;;;;;;;;;5092192;28;20434;-69
2022/05/02 14:16:14;;;;;;;14.00;2.40;;;;;;;;;;5091945;28;20492;-71
2022/05/02 14:18:53;;;;;;;13.70;2.07;;;;;;;;;;5092085;28;20517;-71
2022/05/02 14:21:21;;;;;;;14.30;2.80;;;;;;;;;;5091952;28;20526;-72
2022/05/02 14:23:50;;;;;;;12.67;2.17;;;;;;;;;;5091645;28;20470;-70
2022/05/02 14:26:19;;;;;;;14.20;2.50;;;;;;;;;;5091810;28;20450;-70
2022/05/02 14:28:47;;;;;;;12.33;2.20;;;;;;;;;;5091874;28;20983;-70
2022/05/02 14:31:14;;;;;;;13.03;2.20;;;;;;;;;;5091709;28;20816;-71
2022/05/02 14:33:42;;;;;;;13.87;2.40;;;;;;;;;;5092091;28;20462;-70
2022/05/02 14:36:10;;;;;;;13.87;2.17;;;;;;;;;;5091614;28;20442;-70
2022/05/02 14:38:38;;;;;;;12.67;2.20;;;;;;;;;;5091857;28;20931;-70
2022/05/02 14:41:06;;;;;;;21.40;2.60;;;;;;;;;;5092038;28;20526;-70
2022/05/02 14:43:36;;;;;;;13.83;1.97;;;;;;;;;;5091655;28;20445;-70
2022/05/02 14:46:04;;;;;;;15.00;2.43;;;;;;;;;;5092230;28;20442;-70
2022/05/02 14:48:32;;;;;;;14.37;1.97;;;;;;;;;;5091589;28;20477;-70
2022/05/02 14:51:03;;;;;;;13.57;1.80;;;;;;;;;;5091629;28;20454;-70
2022/05/02 14:53:36;;;;;;;13.03;2.00;;;;;;;;;;5091491;28;20844;-70
2022/05/02 14:56:04;;;;;;;14.73;2.47;;;;;;;;;;5091845;28;20439;-70
2022/05/02 14:58:33;;;;;;;14.67;2.40;;;;;;;;;;5091567;28;20438;-70
2022/05/02 15:01:04;;;;;;;14.70;2.33;;;;;;;;;;5091484;28;20470;-71
2022/05/02 15:03:33;;;;;;;20.50;2.20;;;;;;;;;;5091685;28;20445;-71
2022/05/02 15:06:03;;;;;;;13.10;2.40;;;;;;;;;;5091570;28;21015;-70
2022/05/02 15:08:41;;;;;;;13.00;2.30;;;;;;;;;;5091914;28;20505;-71
2022/05/02 15:11:16;;;;;;;12.67;1.70;;;;;;;;;;5091769;28;20450;-70
2022/05/02 15:13:52;;;;;;;13.40;2.27;;;;;;;;;;5091404;28;20448;-70
2022/05/02 15:16:24;;;;;;;13.60;2.57;;;;;;;;;;5091565;28;20444;-70
2022/05/02 15:22:08;;;;;;;17.13;2.20;;;;;;;;;;5088948;28;20520;-71
2022/05/02 15:24:52;;;;;;;14.00;2.30;;;;;;;;;;5091693;28;20535;-70
2022/05/02 15:38:47;;;;;;;13.13;2.07;;;;;;;;;;5094958;28;20421;-70
2022/05/02 15:41:14;;;;;;;13.67;2.17;;;;;;;;;;5094986;28;20422;-70
2022/05/02 15:43:42;;;;;;;13.20;2.20;;;;;;;;;;5094982;28;20970;-70
2022/05/02 15:46:14;;;;;;;14.90;2.13;;;;;;;;;;5094834;28;20434;-71
2022/05/02 15:48:43;;;;;;;13.87;2.53;;;;;;;;;;5094656;28;20562;-70
2022/05/02 15:51:26;;;;;;;13.50;2.30;;;;;;;;;;5094385;28;20462;-70